アトランタ の空港の天気 - METARとTAF

ハーツフィールド・ジャクソン・アトランタ国際空港 ( KATL / ATL ) - アメリカ ジョージア州アトランタ
飛行場実況気象(Metar)
観測時間04/26 06:52 EDT (04/26 10:52 UTC)
風向・風速西北西 2m/s
視程10km以上
天気現象
少しの雲 雲底高度 2290m
全天の4割程度の雲 雲底高度 4570m
全天の8割程度の雲 雲底高度 6100m
全天の8割程度の雲 雲底高度 7620m
気温11.1℃
湿度93%
気圧1010.7hPa
METARKATL 261052Z 29004KT 10SM FEW075 SCT150 BKN200 BKN250 11/10 A2985 RMK AO2 SLP107 T01110100
過去の天気等 Google飛行場航空写真 Wunderground天気予報

過去48時間のMETAR

飛行場予報(TAF)
発表時間: 4/26 05:45 EDT (4/26 09:45 UTC)
予報対象時間: 26日6時 EDT ~ 27日8時 EDT
風向・風速西北西 2m/s
視程10km以上
全天の8割程度の雲 雲底高度 6,100m
26日8時 EDT から
風向・風速不定 2m/s
視程10km以上
全天の4割程度の雲 雲底高度 2,130m
26日11時 EDT から
風向・風速南東 3m/s
視程10km以上
天気現象周辺でしゅう雨
全天の8割程度の雲 雲底高度 1,070m
26日14時 EDT から
風向・風速南東 5m/s
視程10km以上
天気現象弱いしゅう雨
全天の8割程度の雲 雲底高度 760m
全天を覆う雲 雲底高度 1,370m
26日14時 EDT ~ 26日18時 EDT に一時的に
視程4,830m
天気現象弱い雷雨
全天の8割程度の積乱雲 雲底高度 460m
26日18時 EDT から
風向・風速南 4m/s
視程10km以上
天気現象弱いしゅう雨
全天の8割程度の雲 雲底高度 610m
26日20時 EDT から
風向・風速西 3m/s
視程10km以上
全天の8割程度の雲 雲底高度 760m
27日2時 EDT から
風向・風速西北西 3m/s
視程10km以上
全天を覆う雲 雲底高度 180m
KATL 260945Z 2610/2712 30004KT P6SM BKN200
FM261200 VRB03KT P6SM SCT070
FM261500 14005KT P6SM VCSH BKN035
FM261800 14009KT 6SM -SHRA BKN025 OVC045
TEMPO 2618/2622 3SM -TSRA BKN015CB
FM262200 18007KT 6SM -SHRA BKN020
FM270000 26006KT P6SM BKN025
FM270600 29005KT P6SM OVC006